Time;durP1;ratioP1;P1;durP2;ratioP2;P2;SDS_P1;SDS_P2;PMS_P1;PMS_P2;Temp;Humidity;BMP_temperature;BMP_pressure;BME280_temperature;BME280_humidity;BME280_pressure;Samples;Min_cycle;Max_cycle;Signal;HPM_P1;HPM_P2
2023/10/02 00:01:58;;;;;;;;;;;20.00;69.40;;;20.19;45.85;99343.41;5059319;27;113142;-87
2023/10/02 00:04:28;;;;;;;;;;;20.00;69.70;;;20.16;45.57;99344.16;5028672;27;124261;-87
2023/10/02 00:07:07;;;;;;;;;;;20.00;69.70;;;20.15;45.99;99338.88;5033593;27;124466;-87
2023/10/02 00:09:34;;;;;;;;;;;19.90;69.80;;;20.12;45.83;99343.22;5058351;27;115323;-88
2023/10/02 00:12:11;;;;;;;;;;;19.90;70.00;;;20.10;45.85;99351.22;5028514;27;113644;-89
2023/10/02 00:14:44;;;;;;;;;;;19.90;70.10;;;20.07;45.96;99349.94;5032066;27;125569;-88
2023/10/02 00:17:18;;;;;;;;;;;19.90;70.30;;;20.07;46.16;99346.34;5029422;27;123269;-89
2023/10/02 00:19:57;;;;;;;;;;;19.70;70.20;;;20.04;46.05;99347.88;5027263;27;115918;-89
2023/10/02 00:22:41;;;;;;;;;;;19.80;70.50;;;20.02;46.21;99352.22;5053960;27;114189;-89
2023/10/02 00:25:19;;;;;;;;;;;19.80;70.70;;;20.00;46.48;99340.53;5030954;27;124133;-89
2023/10/02 00:27:51;;;;;;;;;;;19.70;70.70;;;19.95;46.51;99343.63;5026633;27;124552;-89
2023/10/02 00:30:20;;;;;;;;;;;19.70;70.90;;;19.94;46.48;99339.19;5026870;28;114738;-86
2023/10/02 00:32:51;;;;;;;;;;;19.70;71.10;;;19.93;46.49;99338.34;5038981;27;114080;-86
2023/10/02 00:35:17;;;;;;;;;;;19.70;71.20;;;19.91;46.46;99339.88;5059341;27;124779;-86
2023/10/02 00:37:44;;;;;;;;;;;19.70;71.50;;;19.85;46.81;99333.75;5026857;27;123883;-86
2023/10/02 00:40:30;;;;;;;;;;;19.70;71.70;;;19.83;46.79;99334.13;5012232;28;114416;-89
2023/10/02 00:45:43;;;;;;;;;;;19.60;72.00;;;19.76;47.32;99333.94;5058441;27;124447;-89
2023/10/02 00:48:25;;;;;;;;;;;19.50;72.60;;;19.67;47.70;99336.09;5045818;27;123949;-89
2023/10/02 00:50:59;;;;;;;;;;;19.50;72.90;;;19.58;47.84;99332.59;5055650;27;114764;-89
2023/10/02 00:53:40;;;;;;;;;;;19.40;73.00;;;19.54;47.88;99326.91;5025346;27;114310;-89
2023/10/02 00:56:19;;;;;;;;;;;19.40;73.10;;;19.53;47.92;99330.91;5026177;27;124100;-89
2023/10/02 00:58:54;;;;;;;;;;;19.40;73.30;;;19.50;47.94;99328.78;5026022;27;129402;-89
2023/10/02 01:01:22;;;;;;;;;;;19.30;73.40;;;19.49;48.09;99323.56;5057623;27;115780;-89
2023/10/02 01:06:54;;;;;;;;;;;19.30;74.00;;;19.44;48.12;99324.63;5037250;27;124640;-89
2023/10/02 01:09:19;;;;;;;;;;;19.30;74.20;;;19.42;48.63;99324.16;5021760;27;123838;-89
2023/10/02 01:11:46;;;;;;;;;;;19.20;74.60;;;19.37;48.53;99316.88;5030067;27;115405;-88
2023/10/02 01:14:14;;;;;;;;;;;19.20;74.80;;;19.34;48.94;99320.38;5011063;28;113329;-87
2023/10/02 01:16:50;;;;;;;;;;;19.20;75.00;;;19.29;48.98;99314.19;5060153;27;124249;-89
2023/10/02 01:19:18;;;;;;;;;;;19.10;75.40;;;19.20;49.74;99317.97;5048170;27;124089;-88
2023/10/02 01:21:46;;;;;;;;;;;19.10;76.10;;;19.17;49.53;99323.50;5028802;27;114337;-88
2023/10/02 01:24:17;;;;;;;;;;;19.00;76.00;;;19.14;49.56;99318.59;5011332;27;113167;-89
2023/10/02 01:26:43;;;;;;;;;;;19.00;76.30;;;19.12;49.64;99315.34;5014684;28;123307;-89
2023/10/02 01:29:13;;;;;;;;;;;19.00;76.50;;;19.12;49.45;99316.16;5030409;27;123445;-89
2023/10/02 01:31:44;;;;;;;;;;;18.90;76.80;;;19.11;49.63;99316.53;5061154;27;114573;-89
2023/10/02 01:34:33;;;;;;;;;;;18.90;77.00;;;19.11;49.91;99319.31;5027902;28;113857;-90
2023/10/02 01:37:32;;;;;;;;;;;18.90;77.20;;;19.08;49.91;99325.66;5018572;27;124084;-89
2023/10/02 01:40:28;;;;;;;;;;;18.80;77.60;;;19.03;49.98;99315.50;5030172;27;123911;-89
2023/10/02 01:42:39;;;;;;;;;;;18.80;77.60;;;19.03;50.02;99320.28;5032029;27;114468;-90
2023/10/02 01:45:08;;;;;;;;;;;18.80;77.90;;;19.04;50.01;99310.72;5046387;27;113120;-89
2023/10/02 01:47:41;;;;;;;;;;;18.80;78.10;;;19.05;50.16;99315.13;5048455;27;126285;-89
2023/10/02 01:50:09;;;;;;;;;;;18.70;78.20;;;19.01;50.27;99317.84;5044273;27;123942;-89
2023/10/02 01:52:35;;;;;;;;;;;18.80;78.60;;;19.00;50.17;99315.41;5027461;28;113774;-89
2023/10/02 01:55:02;;;;;;;;;;;18.80;78.70;;;18.99;50.29;99317.38;5030424;27;112890;-89
2023/10/02 01:57:34;;;;;;;;;;;18.80;78.90;;;18.98;50.03;99322.16;5027850;27;124308;-90
2023/10/02 02:00:13;;;;;;;;;;;18.80;79.20;;;18.93;50.64;99314.00;5026221;27;124168;-89
2023/10/02 02:02:43;;;;;;;;;;;18.80;79.40;;;18.88;50.52;99310.66;5026918;27;115432;-90
2023/10/02 02:05:14;;;;;;;;;;;18.70;79.50;;;18.83;50.63;99308.91;5029034;27;114715;-89
2023/10/02 02:07:43;;;;;;;;;;;18.70;79.60;;;18.77;50.74;99316.75;5035843;27;124316;-89
2023/10/02 02:10:10;;;;;;;;;;;18.60;79.80;;;18.72;51.20;99319.75;5029370;27;122940;-90
2023/10/02 02:12:55;;;;;;;;;;;18.60;80.30;;;18.68;51.19;99307.66;5023853;27;114101;-89
2023/10/02 02:15:21;;;;;;;;;;;18.60;80.30;;;18.69;51.26;99316.88;5041174;27;114379;-89
2023/10/02 02:17:49;;;;;;;;;;;18.50;80.40;;;18.69;51.33;99325.25;5028031;28;124067;-89
2023/10/02 02:20:43;;;;;;;;;;;18.40;80.80;;;18.67;51.37;99311.63;5074309;27;123925;-89
2023/10/02 02:23:07;;;;;;;;;;;18.50;80.90;;;18.62;51.51;99319.44;5030975;27;116594;-89
2023/10/02 02:25:34;;;;;;;;;;;18.50;81.20;;;18.60;51.66;99310.59;5030969;27;114377;-90
2023/10/02 02:28:06;;;;;;;;;;;18.40;81.40;;;18.57;51.59;99316.91;5029883;27;123849;-89
2023/10/02 02:30:40;;;;;;;;;;;18.40;81.40;;;18.57;51.62;99309.31;5028961;27;123561;-89
2023/10/02 02:33:12;;;;;;;;;;;18.40;81.60;;;18.58;51.62;99316.53;5028366;27;113970;-89
2023/10/02 02:35:41;;;;;;;;;;;18.40;81.80;;;18.59;51.63;99314.56;5040547;27;114277;-89
2023/10/02 02:38:16;;;;;;;;;;;18.40;82.00;;;18.61;51.61;99312.22;5029916;27;124184;-89
2023/10/02 02:40:42;;;;;;;;;;;18.40;82.10;;;18.60;51.71;99310.59;5029365;27;123485;-89
2023/10/02 02:43:21;;;;;;;;;;;18.40;82.50;;;18.53;51.80;99312.00;5029196;27;114419;-89
2023/10/02 02:45:51;;;;;;;;;;;18.40;82.70;;;18.44;52.47;99314.13;5070165;27;114022;-88
2023/10/02 02:48:17;;;;;;;;;;;18.30;83.30;;;18.37;52.51;99311.09;5048405;27;123267;-90
2023/10/02 02:50:43;;;;;;;;;;;18.30;83.50;;;18.30;52.55;99308.09;5040354;27;124249;-89
2023/10/02 02:53:17;;;;;;;;;;;18.20;83.30;;;18.24;52.77;99313.13;5028802;27;115260;-89
2023/10/02 02:55:44;;;;;;;;;;;18.10;83.90;;;18.11;53.41;99308.69;5026387;27;114848;-89
2023/10/02 02:58:11;;;;;;;;;;;18.10;84.40;;;18.00;53.48;99311.16;5060553;27;123139;-89
2023/10/02 03:00:39;;;;;;;;;;;17.90;84.60;;;17.93;53.64;99318.47;5062862;27;124022;-89
2023/10/02 03:03:29;;;;;;;;;;;17.90;85.20;;;17.84;54.13;99313.81;5030781;27;114545;-89
2023/10/02 03:05:58;;;;;;;;;;;17.80;86.00;;;17.79;54.45;99311.25;5034092;27;114213;-89
2023/10/02 03:08:37;;;;;;;;;;;17.70;86.00;;;17.75;54.31;99315.06;5019872;27;124233;-89
2023/10/02 03:11:07;;;;;;;;;;;17.60;86.50;;;17.67;54.51;99309.22;5020605;27;124066;-90
2023/10/02 03:13:34;;;;;;;;;;;17.50;86.70;;;17.58;55.04;99314.09;5026361;27;115311;-89
2023/10/02 03:16:08;;;;;;;;;;;17.50;87.80;;;17.48;55.42;99311.75;5028206;27;114088;-91
2023/10/02 03:18:40;;;;;;;;;;;17.40;88.20;;;17.37;55.67;99316.16;5027371;27;124984;-89
2023/10/02 03:23:39;;;;;;;;;;;17.10;89.10;;;17.23;55.64;99317.28;5024028;28;115155;-92
2023/10/02 03:27:00;;;;;;;;;;;17.10;88.70;;;17.25;55.43;99316.09;5030107;28;114107;-88
2023/10/02 03:29:22;;;;;;;;;;;17.20;89.00;;;17.29;55.83;99317.06;5029676;27;124749;-89
2023/10/02 03:31:53;;;;;;;;;;;17.20;89.00;;;17.33;55.84;99323.56;5031595;27;122998;-88
2023/10/02 03:34:30;;;;;;;;;;;17.20;89.00;;;17.38;55.37;99318.59;5064032;27;113307;-90
2023/10/02 03:37:00;;;;;;;;;;;17.20;89.00;;;17.44;55.29;99319.19;5063661;27;113214;-90
2023/10/02 03:42:21;;;;;;;;;;;17.20;89.20;;;17.52;55.24;99318.28;5031459;27;124569;-91
2023/10/02 03:44:56;;;;;;;;;;;17.30;89.10;;;17.53;55.12;99331.09;5029061;28;115943;-91
2023/10/02 03:47:23;;;;;;;;;;;19.10;90.30;;;17.54;54.88;99321.53;5031385;27;113870;-90
2023/10/02 03:50:00;;;;;;;;;;;17.30;89.10;;;17.57;54.96;99337.63;5028909;27;124130;-90
2023/10/02 03:52:35;;;;;;;;;;;17.30;89.10;;;17.57;54.90;99325.59;5029456;27;124011;-91
2023/10/02 03:55:14;;;;;;;;;;;17.30;89.10;;;17.58;55.01;99338.44;5040416;27;114459;-90
2023/10/02 03:57:55;;;;;;;;;;;17.30;89.20;;;17.58;54.79;99332.84;5033885;27;112821;-90
2023/10/02 04:00:40;;;;;;;;;;;17.30;89.20;;;17.55;54.83;99328.75;5029630;27;124567;-89
2023/10/02 04:03:08;;;;;;;;;;;17.30;89.20;;;17.51;55.13;99332.59;5018633;27;124627;-89
2023/10/02 04:05:44;;;;;;;;;;;17.30;89.30;;;17.52;54.88;99331.44;5031283;27;114461;-90
2023/10/02 04:08:21;;;;;;;;;;;17.30;89.40;;;17.54;55.13;99331.91;5018477;27;97045;-89
2023/10/02 04:11:03;;;;;;;;;;;17.30;89.30;;;17.56;54.98;99333.19;5028156;27;125006;-90
2023/10/02 04:13:35;;;;;;;;;;;17.30;89.40;;;17.58;54.97;99332.84;5015874;27;123511;-90
2023/10/02 04:19:06;;;;;;;;;;;17.30;89.50;;;17.60;54.85;99339.72;4982386;28;113669;-90
2023/10/02 04:21:33;;;;;;;;;;;17.30;89.50;;;17.62;55.08;99328.19;5006254;27;124843;-91
2023/10/02 04:24:00;;;;;;;;;;;17.40;89.60;;;17.61;54.93;99337.75;5029187;27;124005;-90
2023/10/02 04:26:28;;;;;;;;;;;17.30;89.60;;;17.63;54.96;99332.63;5029349;27;113913;-90
2023/10/02 04:28:58;;;;;;;;;;;17.40;89.70;;;17.65;54.86;99342.28;5032857;27;113606;-90
2023/10/02 04:31:30;;;;;;;;;;;17.40;89.80;;;17.69;54.82;99338.81;5030505;27;123277;-90
2023/10/02 04:34:15;;;;;;;;;;;17.40;89.90;;;17.67;54.98;99336.34;5029068;27;123929;-90
2023/10/02 04:36:43;;;;;;;;;;;17.40;89.90;;;17.66;55.01;99327.16;5020332;27;115394;-89
2023/10/02 04:45:16;;;;;;;;;;;17.40;90.00;;;17.66;55.06;99332.75;5030059;27;124491;-88
2023/10/02 04:47:44;;;;;;;;;;;17.40;90.00;;;17.65;55.05;99333.91;5031355;27;114572;-88
2023/10/02 04:52:55;;;;;;;;;;;17.40;90.10;;;17.63;55.09;99329.84;5030877;27;124493;-90
2023/10/02 04:55:31;;;;;;;;;;;17.40;90.10;;;17.63;55.03;99333.44;5024156;27;124180;-87
2023/10/02 04:58:15;;;;;;;;;;;17.30;90.10;;;17.62;55.13;99326.22;5032734;27;114498;-87
2023/10/02 05:01:23;;;;;;;;;;;17.40;90.10;;;17.63;55.24;99329.84;5026337;27;113780;-87
2023/10/02 05:03:37;;;;;;;;;;;19.40;91.00;;;17.64;54.72;99332.25;5040266;27;124252;-87
2023/10/02 05:06:04;;;;;;;;;;;17.40;90.20;;;17.69;55.20;99333.22;5029929;27;123751;-87
2023/10/02 05:09:11;;;;;;;;;;;17.40;90.20;;;17.70;55.19;99329.25;5047911;27;113485;-85
2023/10/02 05:11:46;;;;;;;;;;;17.40;90.20;;;17.70;55.29;99323.66;5056327;27;113696;-86
2023/10/02 05:14:15;;;;;;;;;;;17.40;90.30;;;17.71;55.05;99328.09;5030708;27;123293;-87
2023/10/02 05:16:46;;;;;;;;;;;17.40;90.30;;;17.71;55.15;99333.69;5026905;27;123949;-87
2023/10/02 05:19:14;;;;;;;;;;;17.40;90.30;;;17.73;55.03;99334.13;5029096;27;114481;-86
2023/10/02 05:21:50;;;;;;;;;;;17.40;90.30;;;17.72;55.09;99336.13;5030099;27;113407;-87
2023/10/02 05:24:19;;;;;;;;;;;17.40;90.30;;;17.67;55.16;99325.97;5026951;27;124310;-88
2023/10/02 05:26:49;;;;;;;;;;;17.40;90.30;;;17.60;55.39;99336.94;5028105;27;124298;-87
2023/10/02 05:29:36;;;;;;;;;;;17.30;90.40;;;17.53;55.86;99336.66;5021720;27;115501;-91
2023/10/02 05:32:19;;;;;;;;;;;17.30;90.60;;;17.44;56.35;99335.97;5022376;27;113813;-87
2023/10/02 05:37:39;;;;;;;;;;;17.20;90.90;;;17.36;56.33;99346.06;5071619;27;125491;-89
2023/10/02 05:40:37;;;;;;;;;;;17.10;90.90;;;17.35;56.62;99347.19;5031756;27;112877;-88
2023/10/02 05:48:15;;;;;;;;;;;17.10;91.10;;;17.37;56.63;99355.25;5040828;27;124508;-88
2023/10/02 05:50:56;;;;;;;;;;;17.10;91.20;;;17.41;56.53;99351.44;5046119;27;112707;-89
2023/10/02 05:53:29;;;;;;;;;;;17.10;91.30;;;17.42;56.65;99352.25;5025627;27;113765;-89
2023/10/02 05:58:43;;;;;;;;;;;17.10;91.10;;;17.42;56.28;99352.25;5058744;27;124615;-89
2023/10/02 06:01:18;;;;;;;;;;;17.10;91.10;;;17.42;56.21;99352.25;5023928;27;114467;-89
2023/10/02 06:03:56;;;;;;;;;;;17.10;91.10;;;17.44;56.25;99353.53;5007316;28;113148;-90
2023/10/02 06:06:24;;;;;;;;;;;17.10;91.20;;;17.44;56.15;99350.75;5037952;27;124296;-88
2023/10/02 06:09:00;;;;;;;;;;;17.10;91.40;;;17.48;56.41;99352.84;5046707;27;124194;-88
2023/10/02 06:11:33;;;;;;;;;;;17.20;91.10;;;17.54;56.46;99357.84;5044021;27;114130;-88
2023/10/02 06:14:10;;;;;;;;;;;17.20;91.20;;;17.56;56.34;99355.53;5034856;27;114725;-89
2023/10/02 06:16:39;;;;;;;;;;;17.20;91.30;;;17.51;56.30;99358.53;5031979;27;124429;-91
2023/10/02 06:19:13;;;;;;;;;;;17.20;91.30;;;17.53;56.55;99356.22;5062674;27;124087;-94
2023/10/02 06:24:28;;;;;;;;;;;17.30;91.60;;;17.76;56.51;99358.59;5032539;27;115661;-89
2023/10/02 06:27:05;;;;;;;;;;;17.30;91.60;;;17.87;56.18;99362.63;5024612;27;123962;-89
2023/10/02 06:29:35;;;;;;;;;;;17.40;91.60;;;17.98;55.98;99363.78;5021902;27;123372;-90
2023/10/02 06:32:22;;;;;;;;;;;17.50;91.60;;;18.06;55.82;99360.06;5060095;27;113603;-91
2023/10/02 06:34:50;;;;;;;;;;;17.60;91.50;;;18.13;55.56;99364.25;5050267;27;113202;-90
2023/10/02 06:37:19;;;;;;;;;;;17.70;91.30;;;18.14;55.57;99360.31;5027358;27;124365;-90
2023/10/02 06:40:04;;;;;;;;;;;17.70;91.30;;;18.19;55.44;99366.50;5033948;27;123102;-90
2023/10/02 06:42:31;;;;;;;;;;;17.70;91.20;;;18.27;55.40;99365.56;5036528;27;114687;-90
2023/10/02 06:45:02;;;;;;;;;;;17.80;91.10;;;18.36;54.98;99364.63;5025897;27;113538;-90
2023/10/02 06:47:30;;;;;;;;;;;17.90;91.10;;;18.44;55.20;99358.91;5040931;27;125055;-90
2023/10/02 06:50:03;;;;;;;;;;;17.90;91.10;;;18.57;54.93;99364.50;5026005;27;123760;-90
2023/10/02 06:52:32;;;;;;;;;;;18.00;91.10;;;18.66;54.55;99365.16;5039199;27;114823;-89
2023/10/02 06:55:01;;;;;;;;;;;18.10;91.00;;;18.74;54.40;99367.00;5048158;27;113262;-90
2023/10/02 06:57:28;;;;;;;;;;;18.20;90.90;;;18.83;54.15;99370.50;5050555;27;123401;-89
2023/10/02 06:59:57;;;;;;;;;;;18.30;90.90;;;18.91;53.91;99366.78;5025040;27;124545;-90
2023/10/02 07:02:26;;;;;;;;;;;18.40;90.80;;;19.02;53.85;99371.84;5028536;27;114527;-89
2023/10/02 07:04:55;;;;;;;;;;;18.40;90.70;;;19.10;53.60;99366.13;5036111;27;113590;-89
2023/10/02 07:07:26;;;;;;;;;;;18.50;90.70;;;19.20;53.62;99367.59;5036336;27;124424;-90
2023/10/02 07:09:54;;;;;;;;;;;18.60;90.60;;;19.22;53.42;99365.25;5062792;27;124080;-90
2023/10/02 07:12:22;;;;;;;;;;;18.60;90.50;;;19.24;53.29;99368.53;5069188;27;115567;-90
2023/10/02 07:14:48;;;;;;;;;;;18.70;90.50;;;19.27;53.10;99362.22;5034171;28;113622;-90
2023/10/02 07:17:18;;;;;;;;;;;18.80;90.40;;;19.35;53.38;99361.22;5032658;27;124198;-87
2023/10/02 07:19:50;;;;;;;;;;;18.80;90.40;;;19.44;53.18;99366.66;5025816;27;123380;-91
2023/10/02 07:22:26;;;;;;;;;;;18.90;90.30;;;19.54;53.00;99365.34;5012254;27;114218;-86
2023/10/02 07:24:55;;;;;;;;;;;19.00;90.30;;;19.61;52.60;99362.72;5041610;27;114379;-87
2023/10/02 07:27:26;;;;;;;;;;;19.00;90.20;;;19.67;52.40;99358.53;5069192;27;123635;-88
2023/10/02 07:29:56;;;;;;;;;;;19.10;90.10;;;19.75;52.36;99362.34;5031540;27;122824;-87
2023/10/02 07:32:29;;;;;;;;;;;19.20;90.00;;;19.82;52.23;99348.50;5074759;27;114247;-87
2023/10/02 07:35:09;;;;;;;;;;;19.20;89.70;;;19.85;51.74;99351.41;5023102;27;112765;-89
2023/10/02 07:37:39;;;;;;;;;;;19.30;89.50;;;19.86;51.92;99350.22;5037848;27;124336;-89
2023/10/02 07:40:06;;;;;;;;;;;19.30;89.40;;;19.91;52.06;99346.34;5021090;27;123952;-87
2023/10/02 07:42:38;;;;;;;;;;;19.30;89.30;;;19.94;51.75;99347.59;5030258;27;114613;-89
2023/10/02 07:45:24;;;;;;;;;;;19.40;89.20;;;19.98;51.52;99349.31;5033929;27;113900;-88
2023/10/02 07:48:11;;;;;;;;;;;19.50;89.00;;;20.05;51.31;99346.69;5031050;27;123663;-88
2023/10/02 07:50:43;;;;;;;;;;;19.50;88.70;;;20.06;51.00;99342.69;5034056;27;124497;-88
2023/10/02 07:53:11;;;;;;;;;;;19.50;88.50;;;20.11;51.19;99343.59;5063063;27;115019;-88
2023/10/02 07:55:42;;;;;;;;;;;19.60;88.50;;;20.15;51.16;99342.53;5011440;28;114441;-89
2023/10/02 07:58:10;;;;;;;;;;;19.60;88.30;;;20.17;50.89;99342.97;5019620;27;124283;-89
2023/10/02 08:00:41;;;;;;;;;;;19.60;88.00;;;20.23;51.01;99349.09;5016009;27;124167;-89
2023/10/02 08:05:58;;;;;;;;;;;19.70;87.90;;;20.31;50.71;99336.91;5031873;27;115389;-88
2023/10/02 08:08:34;;;;;;;;;;;19.70;87.80;;;20.38;50.46;99336.25;5058841;27;123506;-87
2023/10/02 08:11:02;;;;;;;;;;;19.80;87.60;;;20.43;50.59;99333.97;5037063;27;123738;-88
2023/10/02 08:13:48;;;;;;;;;;;19.90;87.40;;;20.45;50.41;99342.03;5074932;27;115616;-87
2023/10/02 08:16:17;;;;;;;;;;;19.90;87.20;;;20.46;50.39;99333.22;5044669;27;113731;-87
2023/10/02 08:18:57;;;;;;;;;;;19.90;87.20;;;20.51;50.29;99332.94;5073472;27;124513;-90
2023/10/02 08:21:35;;;;;;;;;;;20.00;87.30;;;20.59;50.12;99335.94;5047144;27;123986;-87
2023/10/02 08:24:03;;;;;;;;;;;20.00;87.30;;;20.69;50.37;99330.56;5057445;27;114019;-90
2023/10/02 08:26:40;;;;;;;;;;;20.10;87.20;;;20.78;49.93;99333.16;5049002;27;114432;-90
2023/10/02 08:29:14;;;;;;;;;;;20.20;87.00;;;20.85;49.85;99327.72;5074786;27;123884;-88
2023/10/02 08:31:49;;;;;;;;;;;20.30;86.80;;;20.89;49.46;99324.97;5014147;27;124356;-86
2023/10/02 08:34:24;;;;;;;;;;;20.40;86.70;;;20.93;49.52;99315.44;5020860;27;114409;-90
2023/10/02 08:37:15;;;;;;;;;;;20.40;86.50;;;21.00;49.29;99323.19;5032762;27;113459;-89
2023/10/02 08:39:41;;;;;;;;;;;20.40;86.40;;;21.02;49.41;99323.66;5027998;27;124466;-88
2023/10/02 08:42:14;;;;;;;;;;;20.40;86.30;;;21.06;49.67;99320.91;5071426;27;124195;-89
2023/10/02 08:44:41;;;;;;;;;;;20.50;86.20;;;21.09;49.34;99320.16;5036743;27;114719;-87
2023/10/02 08:47:12;;;;;;;;;;;20.50;86.10;;;21.10;49.58;99316.19;5061867;27;113093;-88
2023/10/02 08:49:39;;;;;;;;;;;20.60;86.10;;;21.15;49.48;99318.69;5039053;27;124272;-89
2023/10/02 08:52:14;;;;;;;;;;;20.60;86.10;;;21.19;49.25;99313.94;5045572;27;123693;-88
2023/10/02 08:54:44;;;;;;;;;;;20.60;86.00;;;21.21;49.31;99316.38;5050495;27;116535;-88
2023/10/02 08:57:12;;;;;;;;;;;20.60;86.00;;;21.24;49.07;99316.44;5042703;27;114629;-88
2023/10/02 08:59:39;;;;;;;;;;;20.70;86.00;;;21.30;49.09;99319.78;5036773;27;123829;-87
2023/10/02 09:02:13;;;;;;;;;;;20.80;85.90;;;21.36;49.32;99312.69;5028624;27;123916;-87
2023/10/02 09:04:59;;;;;;;;;;;20.80;85.90;;;21.40;48.96;99313.59;5028284;27;113788;-88
2023/10/02 09:08:00;;;;;;;;;;;20.90;85.80;;;21.48;49.10;99314.53;5032111;27;113384;-88
2023/10/02 09:10:28;;;;;;;;;;;21.00;85.80;;;21.57;49.10;99309.47;5013910;28;124749;-86
2023/10/02 09:13:24;;;;;;;;;;;21.10;85.60;;;21.63;48.92;99305.19;5028151;27;124064;-88
2023/10/02 09:15:53;;;;;;;;;;;21.10;85.40;;;21.67;48.39;99308.03;5055255;27;114861;-86
2023/10/02 09:19:07;;;;;;;;;;;21.10;85.30;;;21.71;48.69;99301.31;5027014;27;113678;-88
2023/10/02 09:21:22;;;;;;;;;;;21.20;85.30;;;21.77;48.79;99296.16;5030535;27;123338;-87
2023/10/02 09:23:53;;;;;;;;;;;21.30;85.30;;;21.85;48.60;99300.72;5027849;27;123090;-87
2023/10/02 09:26:27;;;;;;;;;;;21.30;85.20;;;21.90;48.45;99300.41;5029380;27;114497;-86
2023/10/02 09:29:01;;;;;;;;;;;21.40;85.10;;;21.99;48.54;99295.34;5022911;27;113947;-87
2023/10/02 09:31:37;;;;;;;;;;;21.40;85.00;;;22.06;48.50;99294.66;5020246;27;125146;-86
2023/10/02 09:34:16;;;;;;;;;;;21.50;85.00;;;22.13;48.31;99291.13;5031698;27;124161;-86
2023/10/02 09:36:53;;;;;;;;;;;21.60;85.00;;;22.19;48.28;99292.44;5027965;27;115126;-87
2023/10/02 09:39:32;;;;;;;;;;;21.60;84.90;;;22.24;48.28;99294.94;5027459;27;113732;-87
2023/10/02 09:42:06;;;;;;;;;;;21.70;84.80;;;22.33;48.23;99286.25;5056700;27;124044;-88
2023/10/02 09:44:45;;;;;;;;;;;21.90;84.80;;;22.40;47.85;99281.50;5029120;27;124152;-87
2023/10/02 09:47:13;;;;;;;;;;;21.90;84.70;;;22.48;47.76;99276.78;5030253;27;115403;-86
2023/10/02 09:49:48;;;;;;;;;;;22.00;84.30;;;22.58;47.46;99275.31;5028369;27;114026;-87
2023/10/02 09:52:16;;;;;;;;;;;22.00;84.60;;;22.63;47.32;99277.81;5058303;27;124897;-86
2023/10/02 09:55:07;;;;;;;;;;;22.10;83.60;;;22.69;46.80;99270.63;5026683;27;124113;-87
2023/10/02 09:57:39;;;;;;;;;;;22.20;83.40;;;22.77;47.00;99268.72;5056078;27;114273;-86
2023/10/02 10:00:33;;;;;;;;;;;22.30;83.30;;;22.85;46.90;99268.44;5051139;27;113889;-85
2023/10/02 10:03:22;;;;;;;;;;;22.30;83.10;;;22.91;46.82;99266.88;5029174;27;124176;-85
2023/10/02 10:06:27;;;;;;;;;;;22.40;83.10;;;23.01;46.59;99253.34;5029899;27;123052;-85
2023/10/02 10:11:44;;;;;;;;;;;22.50;82.40;;;23.19;46.19;99257.19;4997728;28;115088;-86
2023/10/02 10:14:37;;;;;;;;;;;22.70;82.30;;;23.28;46.05;99252.03;4993220;28;124499;-85
2023/10/02 10:17:14;;;;;;;;;;;22.70;82.00;;;23.41;45.69;99257.41;4988424;28;124695;-83
2023/10/02 10:20:19;;;;;;;;;;;22.80;81.60;;;23.50;45.67;99249.41;4998101;28;114552;-84
2023/10/02 10:22:50;;;;;;;;;;;23.00;81.30;;;23.62;45.30;99251.97;4972880;28;113090;-84
2023/10/02 10:27:54;;;;;;;;;;;23.20;81.00;;;23.85;44.76;99242.50;4986512;28;123890;-87
2023/10/02 10:30:39;;;;;;;;;;;23.30;80.50;;;23.96;44.51;99241.38;4997010;28;114604;-84
2023/10/02 10:35:48;;;;;;;;;;;23.40;79.40;;;24.23;43.82;99235.50;5010070;28;124555;-86
2023/10/02 10:41:40;;;;;;;;;;;23.80;78.30;;;24.47;43.00;99222.75;4988125;28;115417;-84
2023/10/02 10:44:12;;;;;;;;;;;23.90;77.70;;;24.63;42.98;99216.78;5001153;27;115148;-83
2023/10/02 10:46:50;;;;;;;;;;;24.10;77.80;;;24.77;42.57;99208.38;5040112;27;125365;-84
2023/10/02 10:49:28;;;;;;;;;;;24.20;77.40;;;24.92;41.86;99206.38;5044389;27;124000;-83
2023/10/02 10:51:58;;;;;;;;;;;24.30;77.00;;;25.07;41.36;99207.25;5034810;27;115093;-82
2023/10/02 10:54:30;;;;;;;;;;;24.50;75.70;;;25.19;41.54;99208.91;5075162;27;113928;-83
2023/10/02 11:00:24;;;;;;;;;;;24.70;74.60;;;25.48;40.39;99196.41;5024422;27;124556;-84
2023/10/02 11:03:19;;;;;;;;;;;24.90;74.00;;;25.65;40.24;99202.47;5034534;27;114670;-83
2023/10/02 11:05:46;;;;;;;;;;;25.00;73.80;;;25.81;39.47;99208.53;5055904;27;113039;-84
2023/10/02 11:08:23;;;;;;;;;;;25.20;72.60;;;25.97;39.44;99208.94;5045095;27;123729;-83
2023/10/02 11:11:01;;;;;;;;;;;25.30;71.70;;;26.14;38.53;99198.81;5040503;27;123489;-83
2023/10/02 11:14:01;;;;;;;;;;;25.50;71.30;;;26.29;38.52;99193.91;5031911;27;114659;-83
2023/10/02 11:16:34;;;;;;;;;;;25.60;70.20;;;26.45;38.04;99199.13;5023752;27;114156;-83
2023/10/02 11:19:10;;;;;;;;;;;25.80;70.30;;;26.61;38.34;99195.84;5031690;27;124350;-85
2023/10/02 11:21:45;;;;;;;;;;;25.90;70.00;;;26.78;37.79;99183.63;5051162;27;123181;-84
2023/10/02 11:24:21;;;;;;;;;;;26.10;69.60;;;26.95;37.85;99184.75;5033076;27;114763;-84
2023/10/02 11:26:55;;;;;;;;;;;26.30;69.30;;;27.11;36.77;99178.59;5037985;27;112835;-85
2023/10/02 11:29:22;;;;;;;;;;;26.40;68.10;;;27.22;36.37;99182.19;5040905;27;124395;-84
2023/10/02 11:32:19;;;;;;;;;;;26.50;66.80;;;27.33;36.41;99178.47;5058540;27;123011;-83
2023/10/02 11:34:59;;;;;;;;;;;26.60;66.50;;;27.43;35.63;99171.88;5046457;27;114665;-83
2023/10/02 11:37:26;;;;;;;;;;;26.80;65.40;;;27.56;35.73;99164.47;5044115;27;114792;-83
2023/10/02 11:39:54;;;;;;;;;;;26.90;65.20;;;27.67;34.74;99170.88;5071388;27;124041;-83
2023/10/02 11:42:20;;;;;;;;;;;27.00;63.80;;;27.77;34.75;99164.28;5046131;27;124533;-85
2023/10/02 11:44:50;;;;;;;;;;;27.20;63.70;;;27.92;34.78;99152.81;5038187;27;113371;-83
2023/10/02 11:47:16;;;;;;;;;;;27.30;63.90;;;28.09;34.79;99157.50;5035848;27;113790;-82
2023/10/02 11:49:42;;;;;;;;;;;27.40;63.30;;;28.25;33.98;99151.22;5071736;27;124916;-83
2023/10/02 11:52:12;;;;;;;;;;;27.60;62.40;;;28.41;33.57;99145.75;5038602;27;124432;-84
2023/10/02 11:54:39;;;;;;;;;;;27.70;61.60;;;28.55;32.51;99144.00;5038192;27;115197;-85
2023/10/02 11:57:08;;;;;;;;;;;27.80;59.50;;;28.65;32.27;99137.34;5069725;27;113917;-85
2023/10/02 11:59:41;;;;;;;;;;;27.90;58.70;;;28.75;31.44;99130.72;5029222;27;125512;-85
2023/10/02 12:02:13;;;;;;;;;;;28.10;57.30;;;28.87;30.72;99122.84;5029827;27;123911;-84
2023/10/02 12:04:39;;;;;;;;;;;28.20;55.80;;;28.98;30.05;99129.97;5029647;27;114433;-84
2023/10/02 12:07:07;;;;;;;;;;;28.30;55.00;;;29.15;29.95;99118.75;5028026;27;115480;-84
2023/10/02 12:09:33;;;;;;;;;;;28.50;54.50;;;29.30;28.91;99114.47;5039674;27;124337;-83
2023/10/02 12:12:00;;;;;;;;;;;28.60;53.00;;;29.45;28.26;99117.88;5061582;27;123969;-85
2023/10/02 12:14:29;;;;;;;;;;;28.70;52.10;;;29.56;27.92;99112.81;5044005;27;113997;-83
2023/10/02 12:16:57;;;;;;;;;;;28.90;50.90;;;29.66;27.34;99117.53;5025407;27;113994;-84
2023/10/02 12:19:25;;;;;;;;;;;28.90;49.80;;;29.74;27.21;99101.09;5055040;27;123494;-82
2023/10/02 12:21:51;;;;;;;;;;;29.10;49.50;;;29.78;27.18;99093.31;5034541;27;124170;-83
2023/10/02 12:24:21;;;;;;;;;;;29.10;48.80;;;29.86;27.61;99105.38;5060654;27;115361;-83
2023/10/02 12:26:52;;;;;;;;;;;29.20;49.30;;;30.02;27.58;99101.81;5028203;27;114829;-84
2023/10/02 12:29:19;;;;;;;;;;;29.40;50.10;;;30.22;27.42;99087.53;5030321;27;124273;-83
2023/10/02 12:31:48;;;;;;;;;;;29.50;49.90;;;30.43;27.55;99092.81;5030485;27;124548;-83
2023/10/02 12:34:17;;;;;;;;;;;29.70;49.50;;;30.55;26.80;99082.81;5020875;27;114874;-83